< < Back
Terminal Aerodrome Forecast


Current Version              Previous Versions:   1  2  3  4  5  6  7  8  9  

Terminal Aerodrome Forecast

873
FTUS42 KILM 280027 CCC
TAFFLO
TAF COR
KFLO 280027Z 2800/2824 02008KT 6SM -RA SCT015 SCT025 OVC035
      TEMPO 2800/2803 SCT015 BKN025
     FM280300 34009KT 6SM -RA SCT020 SCT035 OVC060
      TEMPO 2804/2808 5SM -RA BKN020
     FM281000 33010G19KT P6SM SCT030 SCT070 SCT250=

Latest METAR

655
SAUS70 KWBC 282200 RRH
MTRFLO
METAR KFLO 282153Z 30012G20KT 10SM SCT080 12/M07 A3005 RMK AO2 SLP174
T01221072


USA.gov is the U.S. government's official web portal to all federal, state and local government web resources and services.